createdAt,value
2022-09-16T06:00:29.197Z,99725.81
2022-09-16T06:39:24.479Z,99720.38
2022-09-16T06:42:50.045Z,99721.38
2022-09-16T06:49:27.721Z,99722.56
2022-09-16T06:52:17.711Z,99723.00
2022-09-16T06:55:24.830Z,99725.94
2022-09-16T06:59:03.359Z,99728.63
2022-09-16T07:05:43.636Z,99724.00
2022-09-16T07:08:55.137Z,99731.97
2022-09-16T07:12:07.988Z,99724.63
2022-09-16T07:31:05.946Z,99730.28
2022-09-16T07:34:23.939Z,99729.38
2022-09-16T07:37:49.870Z,99736.13
2022-09-16T07:41:12.997Z,99742.41
2022-09-16T07:44:44.892Z,99739.41
2022-09-16T07:47:55.510Z,99742.03
2022-09-16T07:51:34.299Z,99736.25
2022-09-16T07:55:16.570Z,99733.00
2022-09-16T07:58:49.450Z,99745.00
2022-09-16T08:01:31.601Z,99746.94
2022-09-16T08:09:15.252Z,99748.28
2022-09-16T08:34:33.393Z,99754.38
2022-09-16T08:37:16.367Z,99744.09
2022-09-16T08:44:25.512Z,99750.63
2022-09-16T08:47:26.717Z,99752.06
2022-09-16T08:50:09.396Z,99738.63
2022-09-16T08:53:25.317Z,99758.38
2022-09-16T08:55:53.847Z,99748.69
2022-09-16T08:58:25.889Z,99745.28
2022-09-16T09:01:03.491Z,99744.03
2022-09-16T09:03:38.547Z,99744.69
2022-09-16T09:06:31.635Z,99744.47
2022-09-16T09:09:14.177Z,99740.47
2022-09-16T09:11:53.532Z,99743.84
2022-09-16T09:14:44.041Z,99740.44
2022-09-16T09:17:21.659Z,99736.16
2022-09-16T09:19:58.296Z,99732.69
2022-09-16T09:22:55.084Z,99741.97
2022-09-16T09:25:50.385Z,99733.28
2022-09-16T09:28:40.836Z,99728.91
2022-09-16T09:31:21.208Z,99732.34
2022-09-16T09:34:26.853Z,99725.03
2022-09-16T09:37:20.320Z,99734.97
2022-09-16T09:40:08.420Z,99726.94
2022-09-16T09:42:41.244Z,99715.13
2022-09-16T09:45:31.790Z,99723.38
2022-09-16T09:48:06.379Z,99713.16
2022-09-16T09:50:42.902Z,99704.78
2022-09-16T09:53:35.870Z,99703.94
2022-09-16T09:56:25.518Z,99704.06
2022-09-16T09:59:22.369Z,99701.88
2022-09-16T10:02:03.363Z,99696.38
2022-09-16T10:04:37.636Z,99704.69
2022-09-16T10:07:06.335Z,99697.91
2022-09-16T10:09:36.242Z,99689.09
2022-09-16T10:12:07.938Z,99686.03
2022-09-16T10:14:38.023Z,99683.13
2022-09-16T10:17:17.997Z,99678.19
2022-09-16T10:19:57.790Z,99678.44
2022-09-16T10:22:29.969Z,99675.16
2022-09-16T10:25:00.082Z,99684.16
2022-09-16T10:27:38.207Z,99679.41
2022-09-16T10:30:18.153Z,99672.88
2022-09-16T10:32:59.043Z,99677.97
2022-09-16T10:35:38.154Z,99671.19
2022-09-16T10:38:13.425Z,99660.72
2022-09-16T10:40:52.634Z,99671.25
2022-09-16T10:43:20.406Z,99663.16
2022-09-16T10:45:50.778Z,99677.38
2022-09-16T10:48:24.809Z,99666.03
2022-09-16T10:51:04.073Z,99662.53
2022-09-16T10:53:39.169Z,99651.66
2022-09-16T10:56:20.796Z,99645.63
2022-09-16T10:58:51.513Z,99650.19
2022-09-16T11:01:51.567Z,99646.16
2022-09-16T11:04:40.229Z,99648.63
2022-09-16T11:07:07.991Z,99648.44
2022-09-16T11:09:54.095Z,99648.44
2022-09-16T11:12:41.310Z,99648.22
2022-09-16T11:15:14.710Z,99637.94
2022-09-16T11:17:57.974Z,99644.41
2022-09-16T11:20:31.234Z,99631.88
2022-09-16T11:23:42.370Z,99631.19
2022-09-16T11:26:35.579Z,99632.13
2022-09-16T11:29:28.626Z,99624.75
2022-09-16T11:32:21.117Z,99636.31
2022-09-16T11:35:04.962Z,99630.22
2022-09-16T11:37:33.997Z,99624.19
2022-09-16T11:40:07.320Z,99627.25
2022-09-16T11:42:52.731Z,99606.97
2022-09-16T11:45:47.833Z,99612.69
2022-09-16T11:48:36.117Z,99619.75
2022-09-16T11:51:23.086Z,99616.63
2022-09-16T11:54:25.843Z,99620.16
2022-09-16T11:58:04.676Z,99611.56
2022-09-16T12:01:07.307Z,99605.69
2022-09-16T12:04:37.699Z,99604.00
2022-09-16T12:09:57.829Z,99593.00
2022-09-16T12:12:32.571Z,99588.69
2022-09-16T12:15:26.608Z,99578.53
2022-09-16T12:18:13.535Z,99579.91
2022-09-16T12:20:55.124Z,99577.91
2022-09-16T12:23:31.627Z,99564.47
2022-09-16T12:26:10.085Z,99566.66
2022-09-16T12:28:59.511Z,99552.25
2022-09-16T12:31:47.067Z,99555.31
2022-09-16T12:34:20.868Z,99555.19
2022-09-16T12:36:59.599Z,99555.94
2022-09-16T12:39:27.229Z,99543.56
2022-09-16T12:42:06.783Z,99544.78
2022-09-16T12:45:08.051Z,99533.50
2022-09-16T12:47:55.249Z,99527.72
2022-09-16T12:50:59.655Z,99529.78
2022-09-16T12:53:46.590Z,99522.16
2022-09-16T12:56:22.971Z,99519.22
2022-09-16T12:59:13.783Z,99513.81
2022-09-16T13:01:55.558Z,99514.19
2022-09-16T13:04:43.119Z,99511.84
2022-09-16T13:07:28.323Z,99505.28
2022-09-16T13:10:07.753Z,99502.91
2022-09-16T13:12:43.085Z,99501.75
2022-09-16T13:15:25.584Z,99490.69
2022-09-16T13:17:53.394Z,99493.56
2022-09-16T13:20:34.122Z,99486.47
2022-09-16T13:23:19.355Z,99488.19
2022-09-16T13:26:07.755Z,99480.25
2022-09-16T13:28:39.681Z,99481.06
2022-09-16T13:31:13.378Z,99480.25
2022-09-16T13:33:46.055Z,99482.84
2022-09-16T13:36:31.452Z,99472.69
2022-09-16T13:39:12.897Z,99481.00
2022-09-16T13:41:49.923Z,99477.06
2022-09-16T13:44:39.246Z,99472.66
2022-09-16T13:47:09.902Z,99475.94
2022-09-16T13:49:41.784Z,99477.53
2022-09-16T13:52:16.634Z,99466.50
2022-09-16T13:57:48.600Z,99452.88
2022-09-16T14:00:32.446Z,99461.91
2022-09-16T14:03:18.068Z,99453.63
2022-09-16T14:06:09.294Z,99454.72
2022-09-16T14:09:01.352Z,99453.59
2022-09-16T14:12:04.223Z,99441.88
2022-09-16T14:14:50.079Z,99439.66
2022-09-16T14:17:23.203Z,99435.31
2022-09-16T14:19:56.470Z,99437.53
2022-09-16T14:22:27.445Z,99425.63
2022-09-16T14:25:05.968Z,99415.94
2022-09-16T14:27:40.608Z,99418.63
2022-09-16T14:30:19.279Z,99415.94
2022-09-16T14:32:48.728Z,99413.63
2022-09-16T14:35:23.052Z,99415.84
2022-09-16T14:38:01.999Z,99408.31
2022-09-16T14:40:31.952Z,99403.03
2022-09-16T14:43:07.341Z,99394.25
2022-09-16T14:45:37.364Z,99404.44
2022-09-16T14:48:10.096Z,99405.53
2022-09-16T14:50:41.159Z,99393.66
2022-09-16T14:53:35.291Z,99397.13
2022-09-16T14:56:06.423Z,99395.16
2022-09-16T14:58:34.921Z,99388.50
2022-09-16T15:01:10.601Z,99385.97
2022-09-16T15:03:53.491Z,99390.66
2022-09-16T15:06:27.433Z,99383.72
2022-09-16T15:09:39.776Z,99379.88
2022-09-16T15:12:25.401Z,99381.78
2022-09-16T15:14:53.107Z,99371.22
2022-09-16T15:17:24.015Z,99368.78
2022-09-16T15:19:55.860Z,99370.09
2022-09-16T15:22:23.862Z,99369.63
2022-09-16T15:24:56.426Z,99368.13
2022-09-16T15:27:29.334Z,99372.69
2022-09-16T15:29:59.994Z,99366.91
2022-09-16T15:32:31.709Z,99362.88
2022-09-16T15:35:17.943Z,99363.47
2022-09-16T15:37:46.004Z,99353.84
2022-09-16T15:40:25.618Z,99349.03
2022-09-16T15:43:11.704Z,99351.19
2022-09-16T15:45:40.017Z,99346.97
2022-09-16T15:48:20.733Z,99354.91
2022-09-16T15:51:00.552Z,99349.91
2022-09-16T15:53:31.713Z,99354.38
2022-09-16T15:56:30.600Z,99348.50
2022-09-16T15:59:02.700Z,99342.88
2022-09-16T16:01:53.111Z,99344.56
2022-09-16T16:04:30.925Z,99341.66
2022-09-16T16:07:02.436Z,99345.59
2022-09-16T16:10:10.354Z,99343.78
2022-09-16T16:12:37.758Z,99339.63
2022-09-16T16:15:10.156Z,99343.72
2022-09-16T16:17:37.895Z,99340.06
2022-09-16T16:20:08.131Z,99348.34
2022-09-16T16:22:35.941Z,99347.78
2022-09-16T16:25:09.876Z,99344.59
2022-09-16T16:27:37.910Z,99341.41
2022-09-16T16:30:09.143Z,99342.91
2022-09-16T16:32:38.619Z,99337.53
2022-09-16T16:35:08.321Z,99346.94
2022-09-16T16:37:51.991Z,99334.59
2022-09-16T16:40:19.888Z,99336.56
2022-09-16T16:42:47.335Z,99344.41
2022-09-16T16:45:14.857Z,99337.09
2022-09-16T16:47:42.959Z,99342.34
2022-09-16T16:50:11.214Z,99338.84
2022-09-16T16:52:39.372Z,99325.06
2022-09-16T16:55:07.599Z,99330.16
2022-09-16T16:57:37.561Z,99325.22
2022-09-16T17:00:06.581Z,99319.47
2022-09-16T17:02:34.394Z,99329.66
2022-09-16T17:05:02.726Z,99327.34
2022-09-16T17:07:32.788Z,99333.47
2022-09-16T17:10:00.326Z,99338.00
2022-09-16T17:12:30.878Z,99343.44
2022-09-16T17:14:58.556Z,99342.50
2022-09-16T17:17:30.675Z,99343.28
2022-09-16T17:19:59.543Z,99350.69
2022-09-16T17:22:27.047Z,99352.84
2022-09-16T17:24:54.650Z,99346.22
2022-09-16T17:27:24.708Z,99348.34
2022-09-16T17:29:52.287Z,99357.31
2022-09-16T17:32:19.950Z,99346.56
2022-09-16T17:34:48.174Z,99344.75
2022-09-16T17:37:20.027Z,99345.00
2022-09-16T17:39:48.636Z,99355.63
2022-09-16T17:42:16.319Z,99360.81
2022-09-16T17:44:43.824Z,99358.13
2022-09-16T17:47:11.249Z,99358.97
2022-09-16T17:49:38.854Z,99360.44
2022-09-16T17:52:06.352Z,99358.63
2022-09-16T17:54:34.004Z,99362.72
2022-09-16T17:57:01.472Z,99353.88
2022-09-16T17:59:29.139Z,99357.88
2022-09-16T18:01:56.758Z,99358.94
2022-09-16T18:04:26.884Z,99359.75
2022-09-16T18:06:54.315Z,99360.22
2022-09-16T18:09:21.840Z,99362.38
2022-09-16T18:11:49.445Z,99367.09
2022-09-16T18:14:21.284Z,99366.03
2022-09-16T18:16:50.849Z,99362.00
2022-09-16T18:19:18.384Z,99365.88
2022-09-16T18:21:46.089Z,99365.09
2022-09-16T18:24:13.714Z,99370.53
2022-09-16T18:26:42.367Z,99362.41
2022-09-16T18:29:12.164Z,99359.84
2022-09-16T18:31:42.089Z,99354.50
2022-09-16T18:34:10.013Z,99360.50
2022-09-16T18:36:40.428Z,99359.50
2022-09-16T18:39:12.563Z,99366.50
2022-09-16T18:41:42.009Z,99368.34
2022-09-16T18:44:16.011Z,99381.44
2022-09-16T18:46:44.139Z,99381.03
2022-09-16T18:49:16.765Z,99384.06
2022-09-16T18:51:50.795Z,99377.78
2022-09-16T18:54:30.538Z,99386.28
2022-09-16T18:57:00.198Z,99393.25
2022-09-16T18:59:32.828Z,99385.31
2022-09-16T19:02:16.019Z,99391.19
2022-09-16T19:04:43.709Z,99384.44
2022-09-16T19:07:17.307Z,99388.38
2022-09-16T19:09:46.454Z,99392.97
2022-09-16T19:12:13.837Z,99387.53
2022-09-16T19:14:41.906Z,99393.22
2022-09-16T19:17:09.776Z,99394.06
2022-09-16T19:19:37.383Z,99386.94
2022-09-16T19:22:06.171Z,99381.56
2022-09-16T19:24:34.203Z,99391.03
2022-09-16T19:27:01.768Z,99382.88
2022-09-16T19:29:29.393Z,99386.53
2022-09-16T19:31:57.459Z,99392.97
2022-09-16T19:34:25.159Z,99383.25
2022-09-16T19:36:56.106Z,99383.97
2022-09-16T19:39:24.033Z,99388.22
2022-09-16T19:41:51.502Z,99377.75
2022-09-16T19:44:19.328Z,99390.44
2022-09-16T19:46:49.333Z,99385.75
2022-09-16T19:49:20.136Z,99391.03
2022-09-16T19:51:49.558Z,99401.59
2022-09-16T19:54:17.978Z,99398.53
2022-09-16T19:56:50.078Z,99404.31
2022-09-16T19:59:20.067Z,99424.34
2022-09-16T20:01:48.053Z,99418.78
2022-09-16T20:04:19.926Z,99411.19
2022-09-16T20:06:48.145Z,99418.84
2022-09-16T20:09:17.067Z,99422.81
2022-09-16T20:11:46.481Z,99414.72
2022-09-16T20:14:21.516Z,99439.41
2022-09-16T20:16:50.903Z,99429.13
2022-09-16T20:19:20.149Z,99423.88
2022-09-16T20:21:47.721Z,99439.56
2022-09-16T20:24:18.524Z,99433.97
2022-09-16T20:26:51.473Z,99447.47
2022-09-16T20:29:41.024Z,99446.50
2022-09-16T20:35:38.527Z,99435.81
2022-09-16T20:38:07.715Z,99435.91
2022-09-16T20:40:35.820Z,99431.41
2022-09-16T20:43:06.722Z,99430.81
2022-09-16T20:45:36.891Z,99424.34
2022-09-16T20:51:34.551Z,99434.44
2022-09-16T20:54:08.627Z,99439.91
2022-09-16T20:56:39.685Z,99447.03
2022-09-16T20:59:10.773Z,99444.22
2022-09-16T21:01:44.284Z,99451.78
2022-09-16T21:04:15.524Z,99440.28
2022-09-16T21:06:43.956Z,99449.00
2022-09-16T21:09:13.843Z,99450.78
2022-09-16T21:11:45.120Z,99459.19
2022-09-16T21:14:16.932Z,99459.22
2022-09-16T21:16:46.099Z,99457.50
2022-09-16T21:19:14.707Z,99456.97
2022-09-16T21:21:44.622Z,99470.50
2022-09-16T21:24:13.234Z,99471.56
2022-09-16T21:26:44.631Z,99482.72
2022-09-16T21:29:15.848Z,99479.50
2022-09-16T21:31:51.871Z,99481.16
2022-09-16T21:34:28.957Z,99476.00
2022-09-16T21:36:59.716Z,99481.94
2022-09-16T21:39:28.147Z,99482.75
2022-09-16T21:41:58.041Z,99486.06
2022-09-16T21:44:29.682Z,99491.31
2022-09-16T21:46:57.174Z,99482.50
2022-09-16T21:49:25.757Z,99480.19
2022-09-16T21:51:55.266Z,99489.81
2022-09-16T21:54:24.147Z,99484.34
2022-09-16T21:56:52.171Z,99487.44
2022-09-16T21:59:20.419Z,99499.34
2022-09-16T22:01:50.337Z,99513.78
2022-09-16T22:04:20.665Z,99514.75
2022-09-16T22:06:49.421Z,99521.81
2022-09-16T22:09:17.634Z,99514.34
2022-09-16T22:11:45.901Z,99518.19
2022-09-16T22:14:15.919Z,99506.47
2022-09-16T22:16:44.265Z,99499.41
2022-09-16T22:19:17.659Z,99506.66
2022-09-16T22:21:48.180Z,99484.22
2022-09-16T22:24:17.499Z,99481.09
2022-09-16T22:26:45.244Z,99506.72
2022-09-16T22:29:13.592Z,99494.28
2022-09-16T22:31:41.965Z,99500.03
2022-09-16T22:34:10.206Z,99511.22
2022-09-16T22:36:38.930Z,99514.66
2022-09-16T22:39:16.272Z,99500.03
2022-09-16T22:41:46.238Z,99507.63
2022-09-16T22:44:14.266Z,99504.84
2022-09-16T22:46:45.829Z,99514.03
2022-09-16T22:49:14.690Z,99511.75
2022-09-16T22:51:43.303Z,99522.91
2022-09-16T22:54:13.361Z,99527.44
2022-09-16T22:56:43.770Z,99507.88
2022-09-16T22:59:20.873Z,99515.34
2022-09-16T23:01:49.627Z,99502.13
2022-09-16T23:04:17.884Z,99496.31
2022-09-16T23:06:48.562Z,99504.00
2022-09-16T23:09:18.916Z,99491.50
2022-09-16T23:11:46.495Z,99493.56
2022-09-16T23:14:24.768Z,99489.69
2022-09-16T23:16:54.338Z,99510.31
2022-09-16T23:19:22.575Z,99515.91
2022-09-16T23:21:50.294Z,99525.78
2022-09-16T23:24:30.281Z,99527.03
2022-09-16T23:26:57.814Z,99530.66
2022-09-16T23:29:25.819Z,99537.38
2022-09-16T23:31:53.582Z,99544.78
2022-09-16T23:34:22.153Z,99539.22
2022-09-16T23:36:50.075Z,99536.81
2022-09-16T23:39:18.568Z,99522.72
2022-09-16T23:41:46.574Z,99530.00
2022-09-16T23:44:15.101Z,99524.22
2022-09-16T23:46:43.407Z,99539.22
2022-09-16T23:49:11.549Z,99545.47
2022-09-16T23:51:39.567Z,99550.72
2022-09-16T23:54:10.110Z,99549.28
2022-09-16T23:56:37.738Z,99566.16
2022-09-16T23:59:07.389Z,99556.50
